sensor_id;sensor_type;location;lat;lon;timestamp;pressure;altitude;pressure_sealevel;temperature;humidity
10261;BME280;5175;42.606;23.388;2023-03-31T00:00:56;93730.78;;;7.72;67.77
10261;BME280;5175;42.606;23.388;2023-03-31T00:03:25;93725.44;;;7.62;69.90
10261;BME280;5175;42.606;23.388;2023-03-31T00:05:54;93723.00;;;7.50;71.05
10261;BME280;5175;42.606;23.388;2023-03-31T00:08:22;93716.31;;;7.32;70.32
10261;BME280;5175;42.606;23.388;2023-03-31T00:10:49;93732.31;;;7.52;70.15
10261;BME280;5175;42.606;23.388;2023-03-31T00:13:18;93708.09;;;7.29;71.41
10261;BME280;5175;42.606;23.388;2023-03-31T00:15:44;93718.81;;;7.59;71.07
10261;BME280;5175;42.606;23.388;2023-03-31T00:18:11;93729.66;;;7.52;71.08
10261;BME280;5175;42.606;23.388;2023-03-31T00:20:38;93726.16;;;7.37;73.02
10261;BME280;5175;42.606;23.388;2023-03-31T00:23:07;93724.84;;;7.39;72.98
10261;BME280;5175;42.606;23.388;2023-03-31T00:25:38;93730.44;;;7.48;72.22
10261;BME280;5175;42.606;23.388;2023-03-31T00:28:05;93703.03;;;7.27;72.15
10261;BME280;5175;42.606;23.388;2023-03-31T00:30:33;93722.47;;;7.43;72.91
10261;BME280;5175;42.606;23.388;2023-03-31T00:33:00;93720.13;;;7.56;71.43
10261;BME280;5175;42.606;23.388;2023-03-31T00:35:26;93723.00;;;7.45;72.35
10261;BME280;5175;42.606;23.388;2023-03-31T00:37:53;93709.22;;;7.48;70.78
10261;BME280;5175;42.606;23.388;2023-03-31T00:40:22;93701.03;;;7.65;70.34
10261;BME280;5175;42.606;23.388;2023-03-31T00:42:49;93708.75;;;7.76;69.79
10261;BME280;5175;42.606;23.388;2023-03-31T00:45:27;93710.09;;;7.84;69.32
10261;BME280;5175;42.606;23.388;2023-03-31T00:48:00;93710.63;;;7.86;69.55
10261;BME280;5175;42.606;23.388;2023-03-31T00:50:31;93704.25;;;7.87;69.63
10261;BME280;5175;42.606;23.388;2023-03-31T00:53:02;93713.84;;;8.08;69.57
10261;BME280;5175;42.606;23.388;2023-03-31T00:55:35;93704.81;;;8.09;70.17
10261;BME280;5175;42.606;23.388;2023-03-31T00:58:05;93695.25;;;7.98;70.61
10261;BME280;5175;42.606;23.388;2023-03-31T01:00:32;93686.19;;;7.79;71.64
10261;BME280;5175;42.606;23.388;2023-03-31T01:03:05;93686.72;;;7.86;72.24
10261;BME280;5175;42.606;23.388;2023-03-31T01:05:38;93695.50;;;7.91;73.53
10261;BME280;5175;42.606;23.388;2023-03-31T01:08:08;93686.19;;;7.79;75.29
10261;BME280;5175;42.606;23.388;2023-03-31T01:10:38;93689.94;;;7.93;72.90
10261;BME280;5175;42.606;23.388;2023-03-31T01:13:07;93689.66;;;8.14;71.86
10261;BME280;5175;42.606;23.388;2023-03-31T01:15:35;93678.50;;;8.17;72.03
10261;BME280;5175;42.606;23.388;2023-03-31T01:18:04;93677.16;;;7.70;73.58
10261;BME280;5175;42.606;23.388;2023-03-31T01:20:35;93683.81;;;7.92;74.11
10261;BME280;5175;42.606;23.388;2023-03-31T01:23:32;93691.00;;;7.97;71.83
10261;BME280;5175;42.606;23.388;2023-03-31T01:29:22;93667.59;;;7.94;74.11
10261;BME280;5175;42.606;23.388;2023-03-31T01:32:13;93669.75;;;8.12;71.97
10261;BME280;5175;42.606;23.388;2023-03-31T01:35:00;93672.69;;;8.36;72.17
10261;BME280;5175;42.606;23.388;2023-03-31T01:43:22;93706.19;;;8.52;71.04
10261;BME280;5175;42.606;23.388;2023-03-31T01:45:55;93700.59;;;8.43;75.06
10261;BME280;5175;42.606;23.388;2023-03-31T01:48:31;93704.31;;;8.57;73.03
10261;BME280;5175;42.606;23.388;2023-03-31T01:51:02;93708.03;;;8.56;75.24
10261;BME280;5175;42.606;23.388;2023-03-31T01:53:36;93705.88;;;8.68;74.74
10261;BME280;5175;42.606;23.388;2023-03-31T01:56:14;93708.28;;;8.80;72.82
10261;BME280;5175;42.606;23.388;2023-03-31T01:58:45;93702.63;;;8.97;74.27
10261;BME280;5175;42.606;23.388;2023-03-31T02:01:18;93696.78;;;9.00;74.05
10261;BME280;5175;42.606;23.388;2023-03-31T02:03:49;93697.13;;;8.73;76.55
10261;BME280;5175;42.606;23.388;2023-03-31T02:06:22;93710.13;;;8.85;74.84
10261;BME280;5175;42.606;23.388;2023-03-31T02:08:53;93711.16;;;8.89;72.79
10261;BME280;5175;42.606;23.388;2023-03-31T02:11:24;93702.19;;;8.54;75.63
10261;BME280;5175;42.606;23.388;2023-03-31T02:13:53;93718.66;;;8.76;69.38
10261;BME280;5175;42.606;23.388;2023-03-31T02:16:25;93706.13;;;8.82;71.78
10261;BME280;5175;42.606;23.388;2023-03-31T02:18:55;93720.78;;;8.85;71.47
10261;BME280;5175;42.606;23.388;2023-03-31T02:21:27;93721.03;;;8.98;70.97
10261;BME280;5175;42.606;23.388;2023-03-31T02:23:54;93733.22;;;9.09;71.77
10261;BME280;5175;42.606;23.388;2023-03-31T02:26:28;93724.22;;;8.95;70.05
10261;BME280;5175;42.606;23.388;2023-03-31T02:28:56;93737.22;;;9.02;73.76
10261;BME280;5175;42.606;23.388;2023-03-31T02:31:27;93738.00;;;9.07;70.99
10261;BME280;5175;42.606;23.388;2023-03-31T02:33:58;93742.81;;;9.05;75.30
10261;BME280;5175;42.606;23.388;2023-03-31T02:36:25;93739.66;;;8.98;76.28
10261;BME280;5175;42.606;23.388;2023-03-31T02:38:54;93741.50;;;8.98;78.80
10261;BME280;5175;42.606;23.388;2023-03-31T02:41:25;93745.47;;;9.05;78.70
10261;BME280;5175;42.606;23.388;2023-03-31T02:43:51;93744.19;;;8.82;83.78
10261;BME280;5175;42.606;23.388;2023-03-31T02:46:18;93738.34;;;8.55;91.57
10261;BME280;5175;42.606;23.388;2023-03-31T02:48:47;93736.75;;;8.69;91.02
10261;BME280;5175;42.606;23.388;2023-03-31T02:51:34;93753.50;;;8.85;88.92
10261;BME280;5175;42.606;23.388;2023-03-31T02:54:26;93742.34;;;8.83;93.18
10261;BME280;5175;42.606;23.388;2023-03-31T02:57:24;93742.31;;;8.63;95.85
10261;BME280;5175;42.606;23.388;2023-03-31T03:00:06;93728.25;;;8.57;98.01
10261;BME280;5175;42.606;23.388;2023-03-31T03:02:43;93728.00;;;8.29;100.00
10261;BME280;5175;42.606;23.388;2023-03-31T03:05:20;93727.38;;;8.01;100.00
10261;BME280;5175;42.606;23.388;2023-03-31T03:07:55;93723.16;;;8.05;100.00
10261;BME280;5175;42.606;23.388;2023-03-31T03:10:32;93717.00;;;7.85;100.00
10261;BME280;5175;42.606;23.388;2023-03-31T03:13:07;93708.53;;;8.08;100.00
10261;BME280;5175;42.606;23.388;2023-03-31T03:15:41;93716.22;;;7.99;100.00
10261;BME280;5175;42.606;23.388;2023-03-31T03:18:11;93712.22;;;7.77;100.00
10261;BME280;5175;42.606;23.388;2023-03-31T03:20:38;93703.38;;;7.51;100.00
10261;BME280;5175;42.606;23.388;2023-03-31T03:23:05;93701.78;;;7.55;100.00
10261;BME280;5175;42.606;23.388;2023-03-31T03:25:32;93680.31;;;7.56;100.00
10261;BME280;5175;42.606;23.388;2023-03-31T03:27:59;93680.31;;;7.62;100.00
10261;BME280;5175;42.606;23.388;2023-03-31T03:30:27;93677.16;;;7.80;100.00
10261;BME280;5175;42.606;23.388;2023-03-31T03:32:54;93684.88;;;7.91;100.00
10261;BME280;5175;42.606;23.388;2023-03-31T03:35:23;93684.34;;;8.25;100.00
10261;BME280;5175;42.606;23.388;2023-03-31T03:37:50;93683.53;;;8.04;100.00
10261;BME280;5175;42.606;23.388;2023-03-31T03:40:17;93662.03;;;8.00;100.00
10261;BME280;5175;42.606;23.388;2023-03-31T03:42:44;93682.50;;;8.10;100.00
10261;BME280;5175;42.606;23.388;2023-03-31T03:45:10;93676.16;;;8.41;100.00
10261;BME280;5175;42.606;23.388;2023-03-31T03:47:38;93678.25;;;8.24;100.00
10261;BME280;5175;42.606;23.388;2023-03-31T03:50:06;93678.78;;;8.21;100.00
10261;BME280;5175;42.606;23.388;2023-03-31T03:52:33;93668.94;;;8.11;100.00
10261;BME280;5175;42.606;23.388;2023-03-31T03:55:00;93671.06;;;8.14;100.00
10261;BME280;5175;42.606;23.388;2023-03-31T03:57:27;93670.81;;;8.11;100.00
10261;BME280;5175;42.606;23.388;2023-03-31T03:59:54;93674.25;;;8.11;100.00
10261;BME280;5175;42.606;23.388;2023-03-31T04:02:21;93662.84;;;8.16;100.00
10261;BME280;5175;42.606;23.388;2023-03-31T04:04:49;93662.88;;;8.31;100.00
10261;BME280;5175;42.606;23.388;2023-03-31T04:07:17;93668.72;;;8.38;100.00
10261;BME280;5175;42.606;23.388;2023-03-31T04:09:43;93662.34;;;8.34;100.00
10261;BME280;5175;42.606;23.388;2023-03-31T04:12:10;93667.66;;;8.39;100.00
10261;BME280;5175;42.606;23.388;2023-03-31T04:14:37;93674.53;;;8.55;100.00
10261;BME280;5175;42.606;23.388;2023-03-31T04:17:03;93672.63;;;8.76;100.00
10261;BME280;5175;42.606;23.388;2023-03-31T04:19:30;93671.03;;;8.80;100.00
10261;BME280;5175;42.606;23.388;2023-03-31T04:21:58;93672.88;;;8.85;100.00
10261;BME280;5175;42.606;23.388;2023-03-31T04:24:27;93690.94;;;8.98;100.00
10261;BME280;5175;42.606;23.388;2023-03-31T04:26:57;93685.34;;;8.94;100.00
10261;BME280;5175;42.606;23.388;2023-03-31T04:29:25;93681.97;;;8.68;100.00
10261;BME280;5175;42.606;23.388;2023-03-31T04:31:52;93674.03;;;8.28;100.00
10261;BME280;5175;42.606;23.388;2023-03-31T04:34:23;93675.34;;;8.20;100.00
10261;BME280;5175;42.606;23.388;2023-03-31T04:37:00;93680.94;;;8.39;100.00
10261;BME280;5175;42.606;23.388;2023-03-31T04:39:28;93683.31;;;8.51;100.00
10261;BME280;5175;42.606;23.388;2023-03-31T04:41:56;93688.34;;;8.77;100.00
10261;BME280;5175;42.606;23.388;2023-03-31T04:44:23;93662.31;;;8.54;100.00
10261;BME280;5175;42.606;23.388;2023-03-31T04:46:50;93689.97;;;8.48;100.00
10261;BME280;5175;42.606;23.388;2023-03-31T04:49:17;93681.16;;;8.12;100.00
10261;BME280;5175;42.606;23.388;2023-03-31T04:51:43;93681.19;;;8.28;100.00
10261;BME280;5175;42.606;23.388;2023-03-31T04:54:12;93674.53;;;8.40;100.00
10261;BME280;5175;42.606;23.388;2023-03-31T04:56:38;93687.81;;;8.70;100.00
10261;BME280;5175;42.606;23.388;2023-03-31T04:59:05;93694.44;;;8.68;100.00
10261;BME280;5175;42.606;23.388;2023-03-31T05:01:33;93675.84;;;8.63;100.00
10261;BME280;5175;42.606;23.388;2023-03-31T05:04:00;93679.59;;;8.62;100.00
10261;BME280;5175;42.606;23.388;2023-03-31T05:06:28;93665.50;;;8.46;100.00
10261;BME280;5175;42.606;23.388;2023-03-31T05:08:54;93652.22;;;8.46;100.00
10261;BME280;5175;42.606;23.388;2023-03-31T05:11:23;93652.47;;;8.55;100.00
10261;BME280;5175;42.606;23.388;2023-03-31T05:13:50;93644.19;;;8.76;100.00
10261;BME280;5175;42.606;23.388;2023-03-31T05:16:17;93657.97;;;8.89;100.00
10261;BME280;5175;42.606;23.388;2023-03-31T05:18:43;93651.28;;;8.96;100.00
10261;BME280;5175;42.606;23.388;2023-03-31T05:21:12;93647.13;;;8.70;100.00
10261;BME280;5175;42.606;23.388;2023-03-31T05:23:39;93619.50;;;8.46;100.00
10261;BME280;5175;42.606;23.388;2023-03-31T05:26:05;93640.16;;;8.89;100.00
10261;BME280;5175;42.606;23.388;2023-03-31T05:28:34;93628.72;;;8.83;100.00
10261;BME280;5175;42.606;23.388;2023-03-31T05:31:02;93626.91;;;8.64;100.00
10261;BME280;5175;42.606;23.388;2023-03-31T05:33:30;93624.28;;;8.54;100.00
10261;BME280;5175;42.606;23.388;2023-03-31T05:35:57;93620.75;;;8.78;100.00
10261;BME280;5175;42.606;23.388;2023-03-31T05:38:26;93624.69;;;8.91;100.00
10261;BME280;5175;42.606;23.388;2023-03-31T05:40:55;93625.69;;;9.10;100.00
10261;BME280;5175;42.606;23.388;2023-03-31T05:43:22;93632.25;;;9.33;100.00
10261;BME280;5175;42.606;23.388;2023-03-31T05:45:50;93628.56;;;9.29;100.00
10261;BME280;5175;42.606;23.388;2023-03-31T05:48:17;93639.09;;;9.49;100.00
10261;BME280;5175;42.606;23.388;2023-03-31T05:50:44;93636.50;;;9.39;100.00
10261;BME280;5175;42.606;23.388;2023-03-31T05:53:11;93632.94;;;9.54;100.00
10261;BME280;5175;42.606;23.388;2023-03-31T05:55:38;93634.63;;;9.83;100.00
10261;BME280;5175;42.606;23.388;2023-03-31T05:58:05;93642.69;;;10.12;100.00
10261;BME280;5175;42.606;23.388;2023-03-31T06:00:32;93636.72;;;10.25;99.42
10261;BME280;5175;42.606;23.388;2023-03-31T06:03:01;93640.25;;;10.49;94.98
10261;BME280;5175;42.606;23.388;2023-03-31T06:05:28;93641.47;;;10.62;94.20
10261;BME280;5175;42.606;23.388;2023-03-31T06:07:55;93640.19;;;10.83;90.64
10261;BME280;5175;42.606;23.388;2023-03-31T06:10:22;93648.25;;;11.02;88.94
10261;BME280;5175;42.606;23.388;2023-03-31T06:12:49;93650.53;;;11.13;88.59
10261;BME280;5175;42.606;23.388;2023-03-31T06:15:16;93661.91;;;11.24;85.73
10261;BME280;5175;42.606;23.388;2023-03-31T06:17:43;93663.13;;;11.08;87.27
10261;BME280;5175;42.606;23.388;2023-03-31T06:20:11;93650.19;;;10.96;87.86
10261;BME280;5175;42.606;23.388;2023-03-31T06:22:38;93652.47;;;11.08;86.34
10261;BME280;5175;42.606;23.388;2023-03-31T06:25:05;93644.69;;;11.11;86.57
10261;BME280;5175;42.606;23.388;2023-03-31T06:27:32;93647.69;;;11.05;89.95
10261;BME280;5175;42.606;23.388;2023-03-31T06:30:00;93649.50;;;11.09;87.21
10261;BME280;5175;42.606;23.388;2023-03-31T06:32:26;93647.88;;;11.13;87.26
10261;BME280;5175;42.606;23.388;2023-03-31T06:34:53;93656.53;;;11.00;87.63
10261;BME280;5175;42.606;23.388;2023-03-31T06:37:21;93630.69;;;10.72;90.75
10261;BME280;5175;42.606;23.388;2023-03-31T06:39:48;93651.13;;;10.82;90.22
10261;BME280;5175;42.606;23.388;2023-03-31T06:42:14;93653.63;;;10.97;89.16
10261;BME280;5175;42.606;23.388;2023-03-31T06:44:41;93658.66;;;11.03;89.98
10261;BME280;5175;42.606;23.388;2023-03-31T06:47:08;93658.16;;;11.01;89.80
10261;BME280;5175;42.606;23.388;2023-03-31T06:49:34;93660.53;;;11.03;88.77
10261;BME280;5175;42.606;23.388;2023-03-31T06:52:01;93661.69;;;10.92;88.28
10261;BME280;5175;42.606;23.388;2023-03-31T06:54:29;93656.22;;;10.54;93.57
10261;BME280;5175;42.606;23.388;2023-03-31T06:56:56;93653.38;;;10.41;95.47
10261;BME280;5175;42.606;23.388;2023-03-31T06:59:23;93649.81;;;10.79;91.58
10261;BME280;5175;42.606;23.388;2023-03-31T07:01:50;93650.13;;;10.78;91.45
10261;BME280;5175;42.606;23.388;2023-03-31T07:04:16;93653.94;;;10.95;92.32
10261;BME280;5175;42.606;23.388;2023-03-31T07:06:43;93648.03;;;10.98;93.76
10261;BME280;5175;42.606;23.388;2023-03-31T07:09:10;93640.72;;;11.09;91.63
10261;BME280;5175;42.606;23.388;2023-03-31T07:11:38;93650.16;;;11.20;90.15
10261;BME280;5175;42.606;23.388;2023-03-31T07:14:04;93634.34;;;11.05;91.34
10261;BME280;5175;42.606;23.388;2023-03-31T07:16:31;93633.03;;;11.02;90.36
10261;BME280;5175;42.606;23.388;2023-03-31T07:18:58;93619.47;;;10.75;93.76
10261;BME280;5175;42.606;23.388;2023-03-31T07:21:28;93610.44;;;10.95;92.66
10261;BME280;5175;42.606;23.388;2023-03-31T07:23:55;93603.72;;;11.21;91.38
10261;BME280;5175;42.606;23.388;2023-03-31T07:26:22;93606.94;;;11.60;90.13
10261;BME280;5175;42.606;23.388;2023-03-31T07:28:50;93600.94;;;11.87;87.19
10261;BME280;5175;42.606;23.388;2023-03-31T07:31:19;93606.44;;;12.14;82.13
10261;BME280;5175;42.606;23.388;2023-03-31T07:33:46;93604.66;;;12.23;79.75
10261;BME280;5175;42.606;23.388;2023-03-31T07:36:13;93592.31;;;12.41;73.40
10261;BME280;5175;42.606;23.388;2023-03-31T07:38:40;93596.63;;;12.69;71.51
10261;BME280;5175;42.606;23.388;2023-03-31T07:41:09;93601.03;;;12.92;69.76
10261;BME280;5175;42.606;23.388;2023-03-31T07:43:40;93604.41;;;13.25;66.73
10261;BME280;5175;42.606;23.388;2023-03-31T07:46:14;93599.66;;;13.49;66.45
10261;BME280;5175;42.606;23.388;2023-03-31T07:48:41;93601.72;;;13.66;64.76
10261;BME280;5175;42.606;23.388;2023-03-31T07:51:08;93593.94;;;13.78;60.52
10261;BME280;5175;42.606;23.388;2023-03-31T07:53:35;93587.78;;;14.00;59.90
10261;BME280;5175;42.606;23.388;2023-03-31T07:56:02;93586.22;;;14.21;60.11
10261;BME280;5175;42.606;23.388;2023-03-31T07:58:29;93594.53;;;14.55;57.93
10261;BME280;5175;42.606;23.388;2023-03-31T08:00:55;93590.72;;;14.87;58.20
10261;BME280;5175;42.606;23.388;2023-03-31T08:03:24;93597.22;;;14.86;57.56
10261;BME280;5175;42.606;23.388;2023-03-31T08:05:50;93600.06;;;14.89;55.36
10261;BME280;5175;42.606;23.388;2023-03-31T08:08:17;93588.66;;;15.23;54.41
10261;BME280;5175;42.606;23.388;2023-03-31T08:10:44;93591.06;;;15.25;52.50
10261;BME280;5175;42.606;23.388;2023-03-31T08:13:11;93570.69;;;15.32;53.48
10261;BME280;5175;42.606;23.388;2023-03-31T08:15:39;93585.53;;;15.38;54.30
10261;BME280;5175;42.606;23.388;2023-03-31T08:18:06;93578.06;;;15.83;53.13
10261;BME280;5175;42.606;23.388;2023-03-31T08:20:34;93571.72;;;15.71;53.45
10261;BME280;5175;42.606;23.388;2023-03-31T08:23:01;93567.16;;;15.71;52.00
10261;BME280;5175;42.606;23.388;2023-03-31T08:25:29;93563.50;;;15.67;52.21
10261;BME280;5175;42.606;23.388;2023-03-31T08:27:56;93568.25;;;15.70;52.86
10261;BME280;5175;42.606;23.388;2023-03-31T08:30:23;93565.41;;;16.01;51.07
10261;BME280;5175;42.606;23.388;2023-03-31T08:32:49;93565.41;;;16.18;52.06
10261;BME280;5175;42.606;23.388;2023-03-31T08:35:16;93560.47;;;16.37;51.47
10261;BME280;5175;42.606;23.388;2023-03-31T08:37:44;93559.19;;;16.69;51.06
10261;BME280;5175;42.606;23.388;2023-03-31T08:40:13;93555.00;;;16.80;50.62
10261;BME280;5175;42.606;23.388;2023-03-31T08:42:44;93551.09;;;16.69;51.30
10261;BME280;5175;42.606;23.388;2023-03-31T08:45:17;93546.28;;;16.92;50.44
10261;BME280;5175;42.606;23.388;2023-03-31T08:47:47;93562.91;;;16.94;48.57
10261;BME280;5175;42.606;23.388;2023-03-31T08:50:18;93563.06;;;16.88;45.28
10261;BME280;5175;42.606;23.388;2023-03-31T08:52:54;93542.44;;;16.38;45.76
10261;BME280;5175;42.606;23.388;2023-03-31T08:55:25;93540.97;;;16.49;46.66
10261;BME280;5175;42.606;23.388;2023-03-31T08:57:59;93537.50;;;16.57;46.05
10261;BME280;5175;42.606;23.388;2023-03-31T09:00:34;93525.19;;;16.85;45.70
10261;BME280;5175;42.606;23.388;2023-03-31T09:03:09;93521.47;;;16.69;44.45
10261;BME280;5175;42.606;23.388;2023-03-31T09:05:49;93511.97;;;17.01;44.35
10261;BME280;5175;42.606;23.388;2023-03-31T09:08:30;93512.91;;;17.05;43.24
10261;BME280;5175;42.606;23.388;2023-03-31T09:11:04;93509.38;;;16.83;42.82
10261;BME280;5175;42.606;23.388;2023-03-31T09:13:51;93514.66;;;17.01;42.92
10261;BME280;5175;42.606;23.388;2023-03-31T09:16:23;93512.16;;;16.96;43.43
10261;BME280;5175;42.606;23.388;2023-03-31T09:18:53;93511.00;;;17.05;42.09
10261;BME280;5175;42.606;23.388;2023-03-31T09:21:27;93509.16;;;17.56;42.49
10261;BME280;5175;42.606;23.388;2023-03-31T09:24:02;93504.69;;;17.80;41.63
10261;BME280;5175;42.606;23.388;2023-03-31T09:26:35;93504.34;;;17.03;41.33
10261;BME280;5175;42.606;23.388;2023-03-31T09:29:09;93521.94;;;16.71;42.69
10261;BME280;5175;42.606;23.388;2023-03-31T09:31:41;93511.69;;;16.56;43.34
10261;BME280;5175;42.606;23.388;2023-03-31T09:34:13;93518.94;;;16.64;44.40
10261;BME280;5175;42.606;23.388;2023-03-31T09:36:41;93523.09;;;16.53;43.60
10261;BME280;5175;42.606;23.388;2023-03-31T09:39:11;93512.13;;;16.49;44.74
10261;BME280;5175;42.606;23.388;2023-03-31T09:41:42;93529.28;;;16.53;44.02
10261;BME280;5175;42.606;23.388;2023-03-31T09:44:21;93534.53;;;16.24;43.77
10261;BME280;5175;42.606;23.388;2023-03-31T09:46:49;93523.81;;;16.70;44.54
10261;BME280;5175;42.606;23.388;2023-03-31T09:49:19;93520.78;;;16.80;44.61
10261;BME280;5175;42.606;23.388;2023-03-31T09:51:48;93515.38;;;16.89;43.40
10261;BME280;5175;42.606;23.388;2023-03-31T09:54:22;93511.38;;;17.24;43.02
10261;BME280;5175;42.606;23.388;2023-03-31T09:56:51;93499.28;;;17.01;43.16
10261;BME280;5175;42.606;23.388;2023-03-31T09:59:19;93514.25;;;17.19;43.49
10261;BME280;5175;42.606;23.388;2023-03-31T10:01:49;93501.81;;;17.06;41.80
10261;BME280;5175;42.606;23.388;2023-03-31T10:04:20;93498.19;;;17.02;42.75
10261;BME280;5175;42.606;23.388;2023-03-31T10:06:48;93509.28;;;17.01;43.06
10261;BME280;5175;42.606;23.388;2023-03-31T10:09:18;93505.31;;;16.98;42.19
10261;BME280;5175;42.606;23.388;2023-03-31T10:11:55;93506.00;;;16.32;43.59
10261;BME280;5175;42.606;23.388;2023-03-31T10:14:32;93483.78;;;16.60;45.37
10261;BME280;5175;42.606;23.388;2023-03-31T10:17:03;93496.81;;;16.87;43.80
10261;BME280;5175;42.606;23.388;2023-03-31T10:19:31;93494.88;;;16.59;43.18
10261;BME280;5175;42.606;23.388;2023-03-31T10:22:01;93484.53;;;16.69;45.08
10261;BME280;5175;42.606;23.388;2023-03-31T10:24:36;93495.97;;;16.96;44.79
10261;BME280;5175;42.606;23.388;2023-03-31T10:27:06;93490.72;;;16.70;44.40
10261;BME280;5175;42.606;23.388;2023-03-31T10:29:33;93491.78;;;16.14;44.79
10261;BME280;5175;42.606;23.388;2023-03-31T10:32:08;93492.31;;;15.82;44.68
10261;BME280;5175;42.606;23.388;2023-03-31T10:34:38;93511.31;;;15.77;44.75
10261;BME280;5175;42.606;23.388;2023-03-31T10:37:11;93493.22;;;15.43;45.14
10261;BME280;5175;42.606;23.388;2023-03-31T10:39:41;93484.03;;;15.44;46.21
10261;BME280;5175;42.606;23.388;2023-03-31T10:42:10;93468.41;;;15.54;45.68
10261;BME280;5175;42.606;23.388;2023-03-31T10:44:38;93465.59;;;15.51;45.99
10261;BME280;5175;42.606;23.388;2023-03-31T10:47:17;93471.25;;;15.49;46.25
10261;BME280;5175;42.606;23.388;2023-03-31T10:49:47;93476.81;;;15.53;46.53
10261;BME280;5175;42.606;23.388;2023-03-31T10:52:17;93473.91;;;15.41;46.47
10261;BME280;5175;42.606;23.388;2023-03-31T10:54:49;93470.47;;;15.57;46.13
10261;BME280;5175;42.606;23.388;2023-03-31T10:57:24;93465.38;;;15.90;45.12
10261;BME280;5175;42.606;23.388;2023-03-31T11:00:11;93462.81;;;16.02;45.43
10261;BME280;5175;42.606;23.388;2023-03-31T11:05:55;93461.59;;;15.74;45.57
10261;BME280;5175;42.606;23.388;2023-03-31T11:08:33;93450.19;;;15.77;46.05
10261;BME280;5175;42.606;23.388;2023-03-31T11:11:15;93461.94;;;15.81;45.87
10261;BME280;5175;42.606;23.388;2023-03-31T11:13:50;93444.50;;;15.61;45.64
10261;BME280;5175;42.606;23.388;2023-03-31T11:16:26;93445.78;;;15.73;46.16
10261;BME280;5175;42.606;23.388;2023-03-31T11:19:08;93433.59;;;15.84;46.52
10261;BME280;5175;42.606;23.388;2023-03-31T11:21:46;93435.44;;;16.09;46.20
10261;BME280;5175;42.606;23.388;2023-03-31T11:24:23;93431.75;;;16.31;45.33
10261;BME280;5175;42.606;23.388;2023-03-31T11:26:58;93429.81;;;16.40;45.25
10261;BME280;5175;42.606;23.388;2023-03-31T11:29:32;93425.50;;;16.56;45.07
10261;BME280;5175;42.606;23.388;2023-03-31T11:32:20;93417.97;;;16.70;45.19
10261;BME280;5175;42.606;23.388;2023-03-31T11:35:00;93404.31;;;17.04;43.22
10261;BME280;5175;42.606;23.388;2023-03-31T11:37:41;93401.00;;;16.99;43.32
10261;BME280;5175;42.606;23.388;2023-03-31T11:40:30;93409.97;;;16.82;43.86
10261;BME280;5175;42.606;23.388;2023-03-31T11:43:04;93409.50;;;16.80;43.89
10261;BME280;5175;42.606;23.388;2023-03-31T11:45:37;93396.38;;;16.78;43.42
10261;BME280;5175;42.606;23.388;2023-03-31T11:48:10;93394.19;;;17.01;43.12
10261;BME280;5175;42.606;23.388;2023-03-31T11:50:44;93386.09;;;17.01;43.55
10261;BME280;5175;42.606;23.388;2023-03-31T11:53:16;93389.41;;;17.27;43.37
10261;BME280;5175;42.606;23.388;2023-03-31T11:55:47;93386.25;;;17.25;42.40
10261;BME280;5175;42.606;23.388;2023-03-31T11:58:19;93377.56;;;17.40;42.67
10261;BME280;5175;42.606;23.388;2023-03-31T12:00:50;93376.91;;;17.43;42.92
10261;BME280;5175;42.606;23.388;2023-03-31T12:03:20;93366.56;;;17.45;42.95
10261;BME280;5175;42.606;23.388;2023-03-31T12:05:51;93364.31;;;17.47;43.62
10261;BME280;5175;42.606;23.388;2023-03-31T12:08:27;93369.06;;;17.50;42.68
10261;BME280;5175;42.606;23.388;2023-03-31T12:10:59;93369.47;;;17.61;43.33
10261;BME280;5175;42.606;23.388;2023-03-31T12:13:35;93339.44;;;17.63;43.09
10261;BME280;5175;42.606;23.388;2023-03-31T12:16:10;93337.75;;;17.58;43.09
10261;BME280;5175;42.606;23.388;2023-03-31T12:18:42;93353.19;;;17.70;42.39
10261;BME280;5175;42.606;23.388;2023-03-31T12:21:12;93357.47;;;17.71;43.46
10261;BME280;5175;42.606;23.388;2023-03-31T12:23:42;93360.53;;;17.81;42.97
10261;BME280;5175;42.606;23.388;2023-03-31T12:26:21;93356.16;;;17.77;44.38
10261;BME280;5175;42.606;23.388;2023-03-31T12:28:55;93356.78;;;17.20;44.38
10261;BME280;5175;42.606;23.388;2023-03-31T12:31:26;93360.72;;;17.23;46.07
10261;BME280;5175;42.606;23.388;2023-03-31T12:33:57;93355.91;;;17.28;45.31
10261;BME280;5175;42.606;23.388;2023-03-31T12:36:36;93352.41;;;17.48;45.51
10261;BME280;5175;42.606;23.388;2023-03-31T12:39:17;93353.53;;;17.68;44.10
10261;BME280;5175;42.606;23.388;2023-03-31T12:42:00;93350.47;;;17.70;44.70
10261;BME280;5175;42.606;23.388;2023-03-31T12:44:36;93348.66;;;18.06;45.58
10261;BME280;5175;42.606;23.388;2023-03-31T12:47:26;93340.81;;;18.13;44.09
10261;BME280;5175;42.606;23.388;2023-03-31T12:50:15;93336.69;;;18.28;44.27
10261;BME280;5175;42.606;23.388;2023-03-31T12:52:55;93330.25;;;17.64;42.85
10261;BME280;5175;42.606;23.388;2023-03-31T12:55:32;93326.69;;;17.72;45.05
10261;BME280;5175;42.606;23.388;2023-03-31T12:58:39;93314.88;;;17.76;45.45
10261;BME280;5175;42.606;23.388;2023-03-31T13:01:08;93304.91;;;17.89;46.05
10261;BME280;5175;42.606;23.388;2023-03-31T13:03:41;93302.91;;;18.70;44.78
10261;BME280;5175;42.606;23.388;2023-03-31T13:06:49;93261.59;;;19.10;41.62
10261;BME280;5175;42.606;23.388;2023-03-31T13:08:59;93298.97;;;19.20;40.33
10261;BME280;5175;42.606;23.388;2023-03-31T13:11:36;93285.25;;;18.61;41.40
10261;BME280;5175;42.606;23.388;2023-03-31T13:14:06;93286.38;;;18.48;41.36
10261;BME280;5175;42.606;23.388;2023-03-31T13:16:39;93272.47;;;18.86;42.98
10261;BME280;5175;42.606;23.388;2023-03-31T13:19:06;93263.44;;;19.77;42.93
10261;BME280;5175;42.606;23.388;2023-03-31T13:21:51;93264.50;;;20.35;40.00
10261;BME280;5175;42.606;23.388;2023-03-31T13:24:22;93258.59;;;20.99;38.52
10261;BME280;5175;42.606;23.388;2023-03-31T13:26:49;93248.78;;;21.29;40.59
10261;BME280;5175;42.606;23.388;2023-03-31T13:29:23;93249.50;;;21.07;40.22
10261;BME280;5175;42.606;23.388;2023-03-31T13:32:20;93237.97;;;20.59;37.48
10261;BME280;5175;42.606;23.388;2023-03-31T13:34:58;93227.28;;;20.32;38.01